Terminal Aerodrome Forecast
Issued by NWS

Home | Current Version | Previous Version | Text Only | Print | Product List | Glossary On
Versions: 1 2 3 4 5 6 7 8 9 10 11 12 13 14 15 16 17 18 19 20 21 22 23 24 25
000
FTUS43 KMKX 230112 AAA
TAFENW
TAF AMD
KENW 230112Z 2301/2324 06007KT 1SM -SHRA BR VCTS OVC015CB
     FM230400 26007KT 1 1/2SM -SHRA BR VCTS OVC008CB
     FM230600 27006KT 2SM -SHRA BR OVC003
     FM230900 31009KT 2SM -SN BR OVC008
     FM231100 32011KT P6SM VCSH OVC010
     FM231500 33015G24KT P6SM OVC015=

USA.gov is the U.S. government's official web portal to all federal, state and local government web resources and services.